﻿<?xml version="1.0" encoding="utf-8"?><gpx creator="Garmin Desktop App" version="1.1" xsi:schemaLocation="http://www.topografix.com/GPX/1/1 http://www.topografix.com/GPX/1/1/gpx.xsd http://www.garmin.com/xmlschemas/WaypointExtension/v1 http://www8.garmin.com/xmlschemas/WaypointExtensionv1.xsd http://www.garmin.com/xmlschemas/TrackPointExtension/v1 http://www.garmin.com/xmlschemas/TrackPointExtensionv1.xsd http://www.garmin.com/xmlschemas/GpxExtensions/v3 http://www8.garmin.com/xmlschemas/GpxExtensionsv3.xsd http://www.garmin.com/xmlschemas/ActivityExtension/v1 http://www8.garmin.com/xmlschemas/ActivityExtensionv1.xsd http://www.garmin.com/xmlschemas/AdventuresExtensions/v1 http://www8.garmin.com/xmlschemas/AdventuresExtensionv1.xsd http://www.garmin.com/xmlschemas/PressureExtension/v1 http://www.garmin.com/xmlschemas/PressureExtensionv1.xsd http://www.garmin.com/xmlschemas/TripExtensions/v1 http://www.garmin.com/xmlschemas/TripExtensionsv1.xsd http://www.garmin.com/xmlschemas/TripMetaDataExtensions/v1 http://www.garmin.com/xmlschemas/TripMetaDataExtensionsv1.xsd http://www.garmin.com/xmlschemas/ViaPointTransportationModeExtensions/v1 http://www.garmin.com/xmlschemas/ViaPointTransportationModeExtensionsv1.xsd http://www.garmin.com/xmlschemas/CreationTimeExtension/v1 http://www.garmin.com/xmlschemas/CreationTimeExtensionsv1.xsd http://www.garmin.com/xmlschemas/AccelerationExtension/v1 http://www.garmin.com/xmlschemas/AccelerationExtensionv1.xsd http://www.garmin.com/xmlschemas/PowerExtension/v1 http://www.garmin.com/xmlschemas/PowerExtensionv1.xsd http://www.garmin.com/xmlschemas/VideoExtension/v1 http://www.garmin.com/xmlschemas/VideoExtensionv1.xsd" xmlns="http://www.topografix.com/GPX/1/1" xmlns:xsi="http://www.w3.org/2001/XMLSchema-instance" xmlns:wptx1="http://www.garmin.com/xmlschemas/WaypointExtension/v1" xmlns:gpxtrx="http://www.garmin.com/xmlschemas/GpxExtensions/v3" xmlns:gpxtpx="http://www.garmin.com/xmlschemas/TrackPointExtension/v1" xmlns:gpxx="http://www.garmin.com/xmlschemas/GpxExtensions/v3" xmlns:trp="http://www.garmin.com/xmlschemas/TripExtensions/v1" xmlns:adv="http://www.garmin.com/xmlschemas/AdventuresExtensions/v1" xmlns:prs="http://www.garmin.com/xmlschemas/PressureExtension/v1" xmlns:tmd="http://www.garmin.com/xmlschemas/TripMetaDataExtensions/v1" xmlns:vptm="http://www.garmin.com/xmlschemas/ViaPointTransportationModeExtensions/v1" xmlns:ctx="http://www.garmin.com/xmlschemas/CreationTimeExtension/v1" xmlns:gpxacc="http://www.garmin.com/xmlschemas/AccelerationExtension/v1" xmlns:gpxpx="http://www.garmin.com/xmlschemas/PowerExtension/v1" xmlns:vidx1="http://www.garmin.com/xmlschemas/VideoExtension/v1">

  <metadata>
    <link href="http://www.garmin.com">
      <text>Garmin International</text>
    </link>
    <time>2024-02-18T20:15:17Z</time>
    <bounds maxlat="45.632132459431887" maxlon="7.973556965589523" minlat="45.62536365352571" minlon="7.93987026438117" />
  </metadata>

  <trk>
    <name>bocchetta del lago2024-02-18</name>
    <extensions>
      <gpxx:TrackExtension>
        <gpxx:DisplayColor>Yellow</gpxx:DisplayColor>
      </gpxx:TrackExtension>
      <gpxtrkx:TrackStatsExtension xmlns:gpxtrkx="http://www.garmin.com/xmlschemas/TrackStatsExtension/v1">
        <gpxtrkx:Distance>10353</gpxtrkx:Distance>
        <gpxtrkx:TotalElapsedTime>27005</gpxtrkx:TotalElapsedTime>
        <gpxtrkx:MovingTime>14496</gpxtrkx:MovingTime>
        <gpxtrkx:StoppedTime>12498</gpxtrkx:StoppedTime>
        <gpxtrkx:MovingSpeed>0.714</gpxtrkx:MovingSpeed>
        <gpxtrkx:MaxSpeed>3.74</gpxtrkx:MaxSpeed>
        <gpxtrkx:MaxElevation>2036.108</gpxtrkx:MaxElevation>
        <gpxtrkx:MinElevation>1227.756</gpxtrkx:MinElevation>
        <gpxtrkx:Ascent>822</gpxtrkx:Ascent>
        <gpxtrkx:Descent>824.38</gpxtrkx:Descent>
        <gpxtrkx:AvgAscentRate>0.063</gpxtrkx:AvgAscentRate>
        <gpxtrkx:MaxAscentRate>0.248</gpxtrkx:MaxAscentRate>
        <gpxtrkx:AvgDescentRate>0.065</gpxtrkx:AvgDescentRate>
        <gpxtrkx:MaxDescentRate>-0.368</gpxtrkx:MaxDescentRate>
      </gpxtrkx:TrackStatsExtension>
    </extensions>
    <trkseg>
      <trkpt lat="45.628982540220022" lon="7.973556965589523">
        <ele>1233.3900000000001</ele>
        <time>2024-02-18T07:22:08Z</time>
      </trkpt>
      <trkpt lat="45.628938032314181" lon="7.973428638651967">
        <ele>1230.3900000000001</ele>
        <time>2024-02-18T07:26:33Z</time>
      </trkpt>
      <trkpt lat="45.628965022042394" lon="7.973397374153137">
        <ele>1230.1600000000001</ele>
        <time>2024-02-18T07:32:35Z</time>
      </trkpt>
      <trkpt lat="45.628843400627375" lon="7.972842240706086">
        <ele>1234.8800000000001</ele>
        <time>2024-02-18T07:34:21Z</time>
      </trkpt>
      <trkpt lat="45.628729742020369" lon="7.972171101719141">
        <ele>1247.6400000000001</ele>
        <time>2024-02-18T07:35:36Z</time>
      </trkpt>
      <trkpt lat="45.628664614632726" lon="7.971513625234366">
        <ele>1256.9100000000001</ele>
        <time>2024-02-18T07:36:43Z</time>
      </trkpt>
      <trkpt lat="45.628669476136565" lon="7.970896968618035">
        <ele>1266.3299999999999</ele>
        <time>2024-02-18T07:38:03Z</time>
      </trkpt>
      <trkpt lat="45.628698477521539" lon="7.970178723335266">
        <ele>1276.8</ele>
        <time>2024-02-18T07:39:12Z</time>
      </trkpt>
      <trkpt lat="45.628735776990652" lon="7.969517642632127">
        <ele>1281.22</ele>
        <time>2024-02-18T07:40:16Z</time>
      </trkpt>
      <trkpt lat="45.628788499161601" lon="7.968736113980413">
        <ele>1289.1500000000001</ele>
        <time>2024-02-18T07:41:25Z</time>
      </trkpt>
      <trkpt lat="45.628985725343227" lon="7.968122307211161">
        <ele>1299.8099999999999</ele>
        <time>2024-02-18T07:42:45Z</time>
      </trkpt>
      <trkpt lat="45.629131821915507" lon="7.967508416622877">
        <ele>1308.7</ele>
        <time>2024-02-18T07:44:01Z</time>
      </trkpt>
      <trkpt lat="45.629122937098145" lon="7.966875331476331">
        <ele>1319.95</ele>
        <time>2024-02-18T07:45:28Z</time>
      </trkpt>
      <trkpt lat="45.629052948206663" lon="7.966267140582204">
        <ele>1329</ele>
        <time>2024-02-18T07:46:53Z</time>
      </trkpt>
      <trkpt lat="45.628900229930878" lon="7.965649142861366">
        <ele>1342.6400000000001</ele>
        <time>2024-02-18T07:48:38Z</time>
      </trkpt>
      <trkpt lat="45.628761509433389" lon="7.965049417689443">
        <ele>1356.23</ele>
        <time>2024-02-18T07:50:32Z</time>
      </trkpt>
      <trkpt lat="45.628862930461764" lon="7.96444290317595">
        <ele>1368.1800000000001</ele>
        <time>2024-02-18T07:52:56Z</time>
      </trkpt>
      <trkpt lat="45.628892183303833" lon="7.963911993429065">
        <ele>1370.96</ele>
        <time>2024-02-18T08:02:05Z</time>
      </trkpt>
      <trkpt lat="45.628867708146572" lon="7.963519133627415">
        <ele>1379.05</ele>
        <time>2024-02-18T08:03:13Z</time>
      </trkpt>
      <trkpt lat="45.628809621557593" lon="7.963070115074515">
        <ele>1385.1700000000001</ele>
        <time>2024-02-18T08:04:03Z</time>
      </trkpt>
      <trkpt lat="45.628646677359939" lon="7.962606931105256">
        <ele>1389.25</ele>
        <time>2024-02-18T08:04:57Z</time>
      </trkpt>
      <trkpt lat="45.628468729555607" lon="7.9621556494385">
        <ele>1398.9300000000001</ele>
        <time>2024-02-18T08:06:07Z</time>
      </trkpt>
      <trkpt lat="45.628395890817046" lon="7.961672097444534">
        <ele>1408.1600000000001</ele>
        <time>2024-02-18T08:07:27Z</time>
      </trkpt>
      <trkpt lat="45.628341659903526" lon="7.96120380051434">
        <ele>1416.3699999999999</ele>
        <time>2024-02-18T08:08:23Z</time>
      </trkpt>
      <trkpt lat="45.628123562783003" lon="7.96079233288765">
        <ele>1418.5599999999999</ele>
        <time>2024-02-18T08:09:51Z</time>
      </trkpt>
      <trkpt lat="45.627971515059471" lon="7.960167210549116">
        <ele>1433.8699999999999</ele>
        <time>2024-02-18T08:11:23Z</time>
      </trkpt>
      <trkpt lat="45.627943184226751" lon="7.95959766022861">
        <ele>1444.0999999999999</ele>
        <time>2024-02-18T08:21:46Z</time>
      </trkpt>
      <trkpt lat="45.627932036295533" lon="7.958926605060697">
        <ele>1456.6199999999999</ele>
        <time>2024-02-18T08:23:19Z</time>
      </trkpt>
      <trkpt lat="45.62794653698802" lon="7.958279103040695">
        <ele>1472.97</ele>
        <time>2024-02-18T08:25:08Z</time>
      </trkpt>
      <trkpt lat="45.627985009923577" lon="7.957647107541561">
        <ele>1485.6700000000001</ele>
        <time>2024-02-18T08:26:49Z</time>
      </trkpt>
      <trkpt lat="45.628018118441105" lon="7.956974292173982">
        <ele>1495.03</ele>
        <time>2024-02-18T08:29:35Z</time>
      </trkpt>
      <trkpt lat="45.62784687615931" lon="7.957131788134575">
        <ele>1503.6800000000001</ele>
        <time>2024-02-18T08:30:44Z</time>
      </trkpt>
      <trkpt lat="45.627601789310575" lon="7.957685580477119">
        <ele>1513.52</ele>
        <time>2024-02-18T08:32:01Z</time>
      </trkpt>
      <trkpt lat="45.627286629751325" lon="7.9581562243402">
        <ele>1521.0699999999999</ele>
        <time>2024-02-18T08:34:12Z</time>
      </trkpt>
      <trkpt lat="45.626917826011777" lon="7.958526955917478">
        <ele>1525.73</ele>
        <time>2024-02-18T08:36:10Z</time>
      </trkpt>
      <trkpt lat="45.626541562378407" lon="7.958854017779231">
        <ele>1531.3499999999999</ele>
        <time>2024-02-18T08:36:58Z</time>
      </trkpt>
      <trkpt lat="45.626173848286271" lon="7.958910511806607">
        <ele>1540.0599999999999</ele>
        <time>2024-02-18T08:37:58Z</time>
      </trkpt>
      <trkpt lat="45.625828094780445" lon="7.958490243181586">
        <ele>1547.49</ele>
        <time>2024-02-18T08:38:58Z</time>
      </trkpt>
      <trkpt lat="45.625426098704338" lon="7.958165528252721">
        <ele>1555.8800000000001</ele>
        <time>2024-02-18T08:43:16Z</time>
      </trkpt>
      <trkpt lat="45.62536365352571" lon="7.957619950175285">
        <ele>1564.55</ele>
        <time>2024-02-18T08:44:37Z</time>
      </trkpt>
      <trkpt lat="45.625562639907002" lon="7.956959707662463">
        <ele>1573.02</ele>
        <time>2024-02-18T08:45:58Z</time>
      </trkpt>
      <trkpt lat="45.625753914937377" lon="7.956353612244129">
        <ele>1577.25</ele>
        <time>2024-02-18T08:47:11Z</time>
      </trkpt>
      <trkpt lat="45.626112744212151" lon="7.955983886495233">
        <ele>1584.4400000000001</ele>
        <time>2024-02-18T08:48:26Z</time>
      </trkpt>
      <trkpt lat="45.626387670636177" lon="7.955426489934325">
        <ele>1591.54</ele>
        <time>2024-02-18T08:49:52Z</time>
      </trkpt>
      <trkpt lat="45.626481883227825" lon="7.954772869125009">
        <ele>1600.5599999999999</ele>
        <time>2024-02-18T08:56:15Z</time>
      </trkpt>
      <trkpt lat="45.626420695334673" lon="7.954372381791472">
        <ele>1605.1300000000001</ele>
        <time>2024-02-18T09:01:36Z</time>
      </trkpt>
      <trkpt lat="45.626364704221487" lon="7.954218741506338">
        <ele>1607.47</ele>
        <time>2024-02-18T09:04:13Z</time>
      </trkpt>
      <trkpt lat="45.626628650352359" lon="7.953738374635577">
        <ele>1614.3699999999999</ele>
        <time>2024-02-18T09:05:11Z</time>
      </trkpt>
      <trkpt lat="45.626968368887901" lon="7.95336521230638">
        <ele>1623.3599999999999</ele>
        <time>2024-02-18T09:06:18Z</time>
      </trkpt>
      <trkpt lat="45.627193758264184" lon="7.952756183221936">
        <ele>1632.8699999999999</ele>
        <time>2024-02-18T09:07:36Z</time>
      </trkpt>
      <trkpt lat="45.627506487071514" lon="7.952390229329467">
        <ele>1643.21</ele>
        <time>2024-02-18T09:08:59Z</time>
      </trkpt>
      <trkpt lat="45.627838326618075" lon="7.952050678431988">
        <ele>1650.9400000000001</ele>
        <time>2024-02-18T09:10:09Z</time>
      </trkpt>
      <trkpt lat="45.628229845315218" lon="7.951786899939179">
        <ele>1658.3099999999999</ele>
        <time>2024-02-18T09:11:16Z</time>
      </trkpt>
      <trkpt lat="45.628555566072464" lon="7.951464112848043">
        <ele>1663.3299999999999</ele>
        <time>2024-02-18T09:12:18Z</time>
      </trkpt>
      <trkpt lat="45.628901738673449" lon="7.95115758664906">
        <ele>1671.6600000000001</ele>
        <time>2024-02-18T09:13:32Z</time>
      </trkpt>
      <trkpt lat="45.629212623462081" lon="7.950923563912511">
        <ele>1679.1700000000001</ele>
        <time>2024-02-18T09:15:14Z</time>
      </trkpt>
      <trkpt lat="45.629587713629007" lon="7.95064059086144">
        <ele>1692.8099999999999</ele>
        <time>2024-02-18T09:16:36Z</time>
      </trkpt>
      <trkpt lat="45.629908740520477" lon="7.950487537309527">
        <ele>1698.04</ele>
        <time>2024-02-18T09:25:26Z</time>
      </trkpt>
      <trkpt lat="45.630317777395248" lon="7.950547132641077">
        <ele>1706.6500000000001</ele>
        <time>2024-02-18T09:26:42Z</time>
      </trkpt>
      <trkpt lat="45.630622543394566" lon="7.950297687202692">
        <ele>1708.05</ele>
        <time>2024-02-18T09:27:35Z</time>
      </trkpt>
      <trkpt lat="45.630474602803588" lon="7.949863923713565">
        <ele>1717.28</ele>
        <time>2024-02-18T09:32:13Z</time>
      </trkpt>
      <trkpt lat="45.630282824859023" lon="7.949456814676523">
        <ele>1720.75</ele>
        <time>2024-02-18T09:34:28Z</time>
      </trkpt>
      <trkpt lat="45.63046638853848" lon="7.948883743956685">
        <ele>1724.95</ele>
        <time>2024-02-18T09:35:30Z</time>
      </trkpt>
      <trkpt lat="45.630533862859011" lon="7.948490381240845">
        <ele>1738.5999999999999</ele>
        <time>2024-02-18T09:37:28Z</time>
      </trkpt>
      <trkpt lat="45.630292212590575" lon="7.947996435686946">
        <ele>1745.0899999999999</ele>
        <time>2024-02-18T09:38:47Z</time>
      </trkpt>
      <trkpt lat="45.629960456863046" lon="7.947880513966084">
        <ele>1756.9000000000001</ele>
        <time>2024-02-18T09:40:05Z</time>
      </trkpt>
      <trkpt lat="45.629950230941176" lon="7.947373827919364">
        <ele>1771.01</ele>
        <time>2024-02-18T09:41:50Z</time>
      </trkpt>
      <trkpt lat="45.630351975560188" lon="7.946976022794843">
        <ele>1781.72</ele>
        <time>2024-02-18T09:43:14Z</time>
      </trkpt>
      <trkpt lat="45.630794707685709" lon="7.94696219265461">
        <ele>1796.72</ele>
        <time>2024-02-18T09:45:04Z</time>
      </trkpt>
      <trkpt lat="45.631094025447965" lon="7.946950206533074">
        <ele>1801.6400000000001</ele>
        <time>2024-02-18T09:49:17Z</time>
      </trkpt>
      <trkpt lat="45.631438689306378" lon="7.94716402888298">
        <ele>1810.51</ele>
        <time>2024-02-18T09:50:44Z</time>
      </trkpt>
      <trkpt lat="45.631792154163122" lon="7.947511542588472">
        <ele>1811.46</ele>
        <time>2024-02-18T09:51:54Z</time>
      </trkpt>
      <trkpt lat="45.632057273760438" lon="7.947949999943376">
        <ele>1817.54</ele>
        <time>2024-02-18T09:53:00Z</time>
      </trkpt>
      <trkpt lat="45.632132459431887" lon="7.947844052687287">
        <ele>1825.2</ele>
        <time>2024-02-18T09:54:15Z</time>
      </trkpt>
      <trkpt lat="45.631961049512029" lon="7.947253715246916">
        <ele>1830.7</ele>
        <time>2024-02-18T09:55:34Z</time>
      </trkpt>
      <trkpt lat="45.631794752553105" lon="7.946668406948447">
        <ele>1840.0799999999999</ele>
        <time>2024-02-18T09:56:56Z</time>
      </trkpt>
      <trkpt lat="45.63161856494844" lon="7.946138335391879">
        <ele>1843.28</ele>
        <time>2024-02-18T09:58:22Z</time>
      </trkpt>
      <trkpt lat="45.631843535229564" lon="7.946079662069678">
        <ele>1849.3900000000001</ele>
        <time>2024-02-18T10:00:26Z</time>
      </trkpt>
      <trkpt lat="45.631866166368127" lon="7.94558135792613">
        <ele>1862.8599999999999</ele>
        <time>2024-02-18T10:02:44Z</time>
      </trkpt>
      <trkpt lat="45.631783101707697" lon="7.944975094869733">
        <ele>1865.9100000000001</ele>
        <time>2024-02-18T10:04:49Z</time>
      </trkpt>
      <trkpt lat="45.631587468087673" lon="7.944389116019011">
        <ele>1870.3</ele>
        <time>2024-02-18T10:06:27Z</time>
      </trkpt>
      <trkpt lat="45.631328048184514" lon="7.943876059725881">
        <ele>1875.76</ele>
        <time>2024-02-18T10:07:32Z</time>
      </trkpt>
      <trkpt lat="45.630962094292045" lon="7.943457048386335">
        <ele>1878.8</ele>
        <time>2024-02-18T10:08:47Z</time>
      </trkpt>
      <trkpt lat="45.630522547289729" lon="7.943208608776331">
        <ele>1883.3099999999999</ele>
        <time>2024-02-18T10:10:01Z</time>
      </trkpt>
      <trkpt lat="45.630029439926147" lon="7.943158065900207">
        <ele>1890.23</ele>
        <time>2024-02-18T10:11:23Z</time>
      </trkpt>
      <trkpt lat="45.629596263170242" lon="7.943271556869149">
        <ele>1896.1400000000001</ele>
        <time>2024-02-18T10:13:32Z</time>
      </trkpt>
      <trkpt lat="45.629153782501817" lon="7.943270048126578">
        <ele>1902.6600000000001</ele>
        <time>2024-02-18T10:16:06Z</time>
      </trkpt>
      <trkpt lat="45.629432145506144" lon="7.943201484158635">
        <ele>1902.73</ele>
        <time>2024-02-18T10:32:40Z</time>
      </trkpt>
      <trkpt lat="45.629649069160223" lon="7.943073660135269">
        <ele>1902.24</ele>
        <time>2024-02-18T10:34:19Z</time>
      </trkpt>
      <trkpt lat="45.629252856597304" lon="7.942819688469172">
        <ele>1914.51</ele>
        <time>2024-02-18T10:37:11Z</time>
      </trkpt>
      <trkpt lat="45.628865193575621" lon="7.942381482571363">
        <ele>1921.3800000000001</ele>
        <time>2024-02-18T10:39:51Z</time>
      </trkpt>
      <trkpt lat="45.628490187227726" lon="7.941997423768044">
        <ele>1926.23</ele>
        <time>2024-02-18T10:41:11Z</time>
      </trkpt>
      <trkpt lat="45.628165137022734" lon="7.941524013876915">
        <ele>1939.45</ele>
        <time>2024-02-18T10:43:37Z</time>
      </trkpt>
      <trkpt lat="45.627740593627095" lon="7.941221008077264">
        <ele>1954.6300000000001</ele>
        <time>2024-02-18T10:46:47Z</time>
      </trkpt>
      <trkpt lat="45.627395762130618" lon="7.941115647554398">
        <ele>1968.4200000000001</ele>
        <time>2024-02-18T10:50:11Z</time>
      </trkpt>
      <trkpt lat="45.627119662240148" lon="7.940897298976779">
        <ele>1984.45</ele>
        <time>2024-02-18T10:53:50Z</time>
      </trkpt>
      <trkpt lat="45.626710625365376" lon="7.940730582922697">
        <ele>1992.8099999999999</ele>
        <time>2024-02-18T10:56:25Z</time>
      </trkpt>
      <trkpt lat="45.626275353133678" lon="7.940609464421868">
        <ele>2001.1199999999999</ele>
        <time>2024-02-18T10:58:44Z</time>
      </trkpt>
      <trkpt lat="45.625856593251228" lon="7.940306458622217">
        <ele>2018.6300000000001</ele>
        <time>2024-02-18T11:04:19Z</time>
      </trkpt>
      <trkpt lat="45.625556353479624" lon="7.93987026438117">
        <ele>2031.98</ele>
        <time>2024-02-18T11:10:52Z</time>
      </trkpt>
      <trkpt lat="45.625731367617846" lon="7.940152650699019">
        <ele>2024.21</ele>
        <time>2024-02-18T11:17:21Z</time>
      </trkpt>
      <trkpt lat="45.626062201336026" lon="7.940519023686647">
        <ele>2007.5799999999999</ele>
        <time>2024-02-18T11:19:17Z</time>
      </trkpt>
      <trkpt lat="45.626510633155704" lon="7.94066914357245">
        <ele>1993.6500000000001</ele>
        <time>2024-02-18T11:20:35Z</time>
      </trkpt>
      <trkpt lat="45.626955712214112" lon="7.940906854346395">
        <ele>1984.0699999999999</ele>
        <time>2024-02-18T11:21:34Z</time>
      </trkpt>
      <trkpt lat="45.627341531217098" lon="7.94101657345891">
        <ele>1967.8199999999999</ele>
        <time>2024-02-18T11:23:22Z</time>
      </trkpt>
      <trkpt lat="45.627749729901552" lon="7.941262666136026">
        <ele>1951.53</ele>
        <time>2024-02-18T11:26:24Z</time>
      </trkpt>
      <trkpt lat="45.628128172829747" lon="7.941539939492941">
        <ele>1936.9000000000001</ele>
        <time>2024-02-18T11:27:32Z</time>
      </trkpt>
      <trkpt lat="45.628452803939581" lon="7.941991053521633">
        <ele>1923.74</ele>
        <time>2024-02-18T11:28:32Z</time>
      </trkpt>
      <trkpt lat="45.628831498324871" lon="7.942350804805756">
        <ele>1919.4200000000001</ele>
        <time>2024-02-18T11:30:43Z</time>
      </trkpt>
      <trkpt lat="45.62919451855123" lon="7.942731259390712">
        <ele>1913.3099999999999</ele>
        <time>2024-02-18T11:32:08Z</time>
      </trkpt>
      <trkpt lat="45.629574218764901" lon="7.943020854145289">
        <ele>1902.22</ele>
        <time>2024-02-18T11:33:20Z</time>
      </trkpt>
      <trkpt lat="45.629442874342203" lon="7.943167285993695">
        <ele>1900.04</ele>
        <time>2024-02-18T11:34:35Z</time>
      </trkpt>
      <trkpt lat="45.629029311239719" lon="7.943308018147945">
        <ele>1903.27</ele>
        <time>2024-02-18T11:43:17Z</time>
      </trkpt>
      <trkpt lat="45.629160907119513" lon="7.943156892433763">
        <ele>1898.8299999999999</ele>
        <time>2024-02-18T12:49:22Z</time>
      </trkpt>
      <trkpt lat="45.629589054733515" lon="7.943195113912225">
        <ele>1891.3299999999999</ele>
        <time>2024-02-18T12:50:27Z</time>
      </trkpt>
      <trkpt lat="45.630039665848017" lon="7.94307466596365">
        <ele>1885.4000000000001</ele>
        <time>2024-02-18T12:51:24Z</time>
      </trkpt>
      <trkpt lat="45.630502598360181" lon="7.943149851635099">
        <ele>1879.3800000000001</ele>
        <time>2024-02-18T12:52:31Z</time>
      </trkpt>
      <trkpt lat="45.630907360464334" lon="7.943403236567974">
        <ele>1874.8699999999999</ele>
        <time>2024-02-18T12:53:19Z</time>
      </trkpt>
      <trkpt lat="45.631297454237938" lon="7.943796599283814">
        <ele>1872.6300000000001</ele>
        <time>2024-02-18T12:54:40Z</time>
      </trkpt>
      <trkpt lat="45.631482107564807" lon="7.944193733856082">
        <ele>1868.6800000000001</ele>
        <time>2024-02-18T12:58:21Z</time>
      </trkpt>
      <trkpt lat="45.631675645709038" lon="7.944770073518157">
        <ele>1863.8800000000001</ele>
        <time>2024-02-18T12:59:30Z</time>
      </trkpt>
      <trkpt lat="45.631821239367127" lon="7.945357980206609">
        <ele>1862.5699999999999</ele>
        <time>2024-02-18T13:00:26Z</time>
      </trkpt>
      <trkpt lat="45.631826771423221" lon="7.945977570489049">
        <ele>1851.0699999999999</ele>
        <time>2024-02-18T13:01:42Z</time>
      </trkpt>
      <trkpt lat="45.63151890411973" lon="7.945935996249318">
        <ele>1843.21</ele>
        <time>2024-02-18T13:02:47Z</time>
      </trkpt>
      <trkpt lat="45.631704647094011" lon="7.946461709216237">
        <ele>1839.79</ele>
        <time>2024-02-18T13:03:48Z</time>
      </trkpt>
      <trkpt lat="45.631885612383485" lon="7.947045844048262">
        <ele>1831.2</ele>
        <time>2024-02-18T13:04:50Z</time>
      </trkpt>
      <trkpt lat="45.632068002596498" lon="7.947634588927031">
        <ele>1824.73</ele>
        <time>2024-02-18T13:05:58Z</time>
      </trkpt>
      <trkpt lat="45.632058614864945" lon="7.947981934994459">
        <ele>1818.74</ele>
        <time>2024-02-18T13:06:56Z</time>
      </trkpt>
      <trkpt lat="45.631755776703358" lon="7.947492264211178">
        <ele>1809.98</ele>
        <time>2024-02-18T13:07:57Z</time>
      </trkpt>
      <trkpt lat="45.631351936608553" lon="7.947119269520044">
        <ele>1809.72</ele>
        <time>2024-02-18T13:09:03Z</time>
      </trkpt>
      <trkpt lat="45.63091741874814" lon="7.946890946477652">
        <ele>1801.77</ele>
        <time>2024-02-18T13:11:27Z</time>
      </trkpt>
      <trkpt lat="45.630467142909765" lon="7.946946183219552">
        <ele>1788.1500000000001</ele>
        <time>2024-02-18T13:13:34Z</time>
      </trkpt>
      <trkpt lat="45.630032038316131" lon="7.94723292812705">
        <ele>1775.5999999999999</ele>
        <time>2024-02-18T13:14:42Z</time>
      </trkpt>
      <trkpt lat="45.629833890125155" lon="7.947633415460587">
        <ele>1763.1099999999999</ele>
        <time>2024-02-18T13:16:07Z</time>
      </trkpt>
      <trkpt lat="45.63018542714417" lon="7.947844890877605">
        <ele>1748.73</ele>
        <time>2024-02-18T13:17:37Z</time>
      </trkpt>
      <trkpt lat="45.630442835390568" lon="7.948320815339685">
        <ele>1743.9100000000001</ele>
        <time>2024-02-18T13:21:36Z</time>
      </trkpt>
      <trkpt lat="45.630574347451329" lon="7.948818532750011">
        <ele>1731.02</ele>
        <time>2024-02-18T13:22:54Z</time>
      </trkpt>
      <trkpt lat="45.630296990275383" lon="7.949252966791391">
        <ele>1724.6600000000001</ele>
        <time>2024-02-18T13:23:58Z</time>
      </trkpt>
      <trkpt lat="45.630441075190902" lon="7.949849087744951">
        <ele>1719.6199999999999</ele>
        <time>2024-02-18T13:25:13Z</time>
      </trkpt>
      <trkpt lat="45.630576442927122" lon="7.950400365516543">
        <ele>1708.8599999999999</ele>
        <time>2024-02-18T13:26:24Z</time>
      </trkpt>
      <trkpt lat="45.630188696086407" lon="7.950520142912865">
        <ele>1705.45</ele>
        <time>2024-02-18T13:27:48Z</time>
      </trkpt>
      <trkpt lat="45.629756106063724" lon="7.950574709102511">
        <ele>1699.53</ele>
        <time>2024-02-18T13:28:53Z</time>
      </trkpt>
      <trkpt lat="45.629360480234027" lon="7.950838319957256">
        <ele>1686.6400000000001</ele>
        <time>2024-02-18T13:30:06Z</time>
      </trkpt>
      <trkpt lat="45.628964267671108" lon="7.951143085956574">
        <ele>1674.28</ele>
        <time>2024-02-18T13:31:24Z</time>
      </trkpt>
      <trkpt lat="45.628560176119208" lon="7.951434273272753">
        <ele>1667.3199999999999</ele>
        <time>2024-02-18T13:34:41Z</time>
      </trkpt>
      <trkpt lat="45.628216350451112" lon="7.951829731464386">
        <ele>1660.8399999999999</ele>
        <time>2024-02-18T13:35:41Z</time>
      </trkpt>
      <trkpt lat="45.627803960815072" lon="7.952080769464374">
        <ele>1653.8199999999999</ele>
        <time>2024-02-18T13:37:06Z</time>
      </trkpt>
      <trkpt lat="45.627443622797728" lon="7.952453764155507">
        <ele>1645.1400000000001</ele>
        <time>2024-02-18T13:41:55Z</time>
      </trkpt>
      <trkpt lat="45.627102311700583" lon="7.952835895121098">
        <ele>1634.76</ele>
        <time>2024-02-18T13:42:45Z</time>
      </trkpt>
      <trkpt lat="45.626918328925967" lon="7.953460430726409">
        <ele>1626.23</ele>
        <time>2024-02-18T13:44:05Z</time>
      </trkpt>
      <trkpt lat="45.626564528793097" lon="7.953840550035238">
        <ele>1617.3499999999999</ele>
        <time>2024-02-18T13:44:55Z</time>
      </trkpt>
      <trkpt lat="45.626383731141686" lon="7.954393336549401">
        <ele>1609.4000000000001</ele>
        <time>2024-02-18T13:45:55Z</time>
      </trkpt>
      <trkpt lat="45.626463275402784" lon="7.955018458887935">
        <ele>1600.9300000000001</ele>
        <time>2024-02-18T13:46:50Z</time>
      </trkpt>
      <trkpt lat="45.626328326761723" lon="7.955615250393748">
        <ele>1591.8900000000001</ele>
        <time>2024-02-18T13:48:09Z</time>
      </trkpt>
      <trkpt lat="45.626053400337696" lon="7.956109363585711">
        <ele>1586.21</ele>
        <time>2024-02-18T13:49:01Z</time>
      </trkpt>
      <trkpt lat="45.625697756186128" lon="7.956442292779684">
        <ele>1579.1800000000001</ele>
        <time>2024-02-18T13:53:03Z</time>
      </trkpt>
      <trkpt lat="45.625568591058254" lon="7.957061296328902">
        <ele>1575.0599999999999</ele>
        <time>2024-02-18T13:53:47Z</time>
      </trkpt>
      <trkpt lat="45.625372035428882" lon="7.957630176097155">
        <ele>1567.26</ele>
        <time>2024-02-18T13:54:32Z</time>
      </trkpt>
      <trkpt lat="45.625455686822534" lon="7.958199474960566">
        <ele>1558.75</ele>
        <time>2024-02-18T13:55:18Z</time>
      </trkpt>
      <trkpt lat="45.625852067023516" lon="7.9584826156497">
        <ele>1550.5699999999999</ele>
        <time>2024-02-18T13:56:01Z</time>
      </trkpt>
      <trkpt lat="45.626212824136019" lon="7.95890137553215">
        <ele>1542.6500000000001</ele>
        <time>2024-02-18T13:56:48Z</time>
      </trkpt>
      <trkpt lat="45.626538628712296" lon="7.958792913705111">
        <ele>1533.0999999999999</ele>
        <time>2024-02-18T13:57:43Z</time>
      </trkpt>
      <trkpt lat="45.626936182379723" lon="7.958472222089768">
        <ele>1527.98</ele>
        <time>2024-02-18T13:58:30Z</time>
      </trkpt>
      <trkpt lat="45.627301130443811" lon="7.95809855684638">
        <ele>1524.0699999999999</ele>
        <time>2024-02-18T13:59:18Z</time>
      </trkpt>
      <trkpt lat="45.627615451812744" lon="7.957642832770944">
        <ele>1517.3399999999999</ele>
        <time>2024-02-18T14:00:52Z</time>
      </trkpt>
      <trkpt lat="45.627835979685187" lon="7.957089208066464">
        <ele>1507.4200000000001</ele>
        <time>2024-02-18T14:01:50Z</time>
      </trkpt>
      <trkpt lat="45.628020549193025" lon="7.956811850890517">
        <ele>1502.9000000000001</ele>
        <time>2024-02-18T14:08:45Z</time>
      </trkpt>
      <trkpt lat="45.628053322434425" lon="7.957445690408349">
        <ele>1494.95</ele>
        <time>2024-02-18T14:09:32Z</time>
      </trkpt>
      <trkpt lat="45.628006299957633" lon="7.958081206306815">
        <ele>1483.27</ele>
        <time>2024-02-18T14:10:56Z</time>
      </trkpt>
      <trkpt lat="45.627968413755298" lon="7.95871127396822">
        <ele>1469.3800000000001</ele>
        <time>2024-02-18T14:12:48Z</time>
      </trkpt>
      <trkpt lat="45.627966737374663" lon="7.959354501217604">
        <ele>1452.9100000000001</ele>
        <time>2024-02-18T14:13:59Z</time>
      </trkpt>
      <trkpt lat="45.628045527264476" lon="7.959948359057307">
        <ele>1442.76</ele>
        <time>2024-02-18T14:15:06Z</time>
      </trkpt>
      <trkpt lat="45.628099758177996" lon="7.960450351238251">
        <ele>1431.72</ele>
        <time>2024-02-18T14:16:28Z</time>
      </trkpt>
      <trkpt lat="45.628264797851443" lon="7.961023673415184">
        <ele>1422.05</ele>
        <time>2024-02-18T14:17:27Z</time>
      </trkpt>
      <trkpt lat="45.628444757312536" lon="7.961520804092288">
        <ele>1416.9300000000001</ele>
        <time>2024-02-18T14:18:19Z</time>
      </trkpt>
      <trkpt lat="45.628505693748593" lon="7.962157661095262">
        <ele>1403.73</ele>
        <time>2024-02-18T14:19:22Z</time>
      </trkpt>
      <trkpt lat="45.628729574382305" lon="7.96269896440208">
        <ele>1393.03</ele>
        <time>2024-02-18T14:20:13Z</time>
      </trkpt>
      <trkpt lat="45.628873994573951" lon="7.963193748146296">
        <ele>1387.25</ele>
        <time>2024-02-18T14:21:29Z</time>
      </trkpt>
      <trkpt lat="45.628907522186637" lon="7.963275890797377">
        <ele>1387.6500000000001</ele>
        <time>2024-02-18T14:27:53Z</time>
      </trkpt>
      <trkpt lat="45.628948174417019" lon="7.963845441117883">
        <ele>1374.7</ele>
        <time>2024-02-18T14:33:17Z</time>
      </trkpt>
      <trkpt lat="45.628942390903831" lon="7.964509287849069">
        <ele>1370.6400000000001</ele>
        <time>2024-02-18T14:34:18Z</time>
      </trkpt>
      <trkpt lat="45.628899894654751" lon="7.965152179822326">
        <ele>1357.5899999999999</ele>
        <time>2024-02-18T14:35:06Z</time>
      </trkpt>
      <trkpt lat="45.628972733393312" lon="7.965754251927137">
        <ele>1342.9000000000001</ele>
        <time>2024-02-18T14:36:07Z</time>
      </trkpt>
      <trkpt lat="45.629151770845056" lon="7.966335201635957">
        <ele>1329.71</ele>
        <time>2024-02-18T14:37:15Z</time>
      </trkpt>
      <trkpt lat="45.629236092790961" lon="7.966954791918397">
        <ele>1319.9100000000001</ele>
        <time>2024-02-18T14:39:01Z</time>
      </trkpt>
      <trkpt lat="45.629193345084786" lon="7.967649316415191">
        <ele>1308.5599999999999</ele>
        <time>2024-02-18T14:40:19Z</time>
      </trkpt>
      <trkpt lat="45.629010116681457" lon="7.968255579471588">
        <ele>1299.6500000000001</ele>
        <time>2024-02-18T14:41:26Z</time>
      </trkpt>
      <trkpt lat="45.6288749165833" lon="7.96885865740478">
        <ele>1290.1300000000001</ele>
        <time>2024-02-18T14:42:24Z</time>
      </trkpt>
      <trkpt lat="45.628825463354588" lon="7.969533484429121">
        <ele>1282.0699999999999</ele>
        <time>2024-02-18T14:43:24Z</time>
      </trkpt>
      <trkpt lat="45.628789169713855" lon="7.97025365754962">
        <ele>1277.04</ele>
        <time>2024-02-18T14:44:15Z</time>
      </trkpt>
      <trkpt lat="45.628762347623706" lon="7.970952205359936">
        <ele>1266.51</ele>
        <time>2024-02-18T14:45:11Z</time>
      </trkpt>
      <trkpt lat="45.628736699000001" lon="7.971588224172592">
        <ele>1256.3299999999999</ele>
        <time>2024-02-18T14:46:37Z</time>
      </trkpt>
      <trkpt lat="45.628869300708175" lon="7.972215861082077">
        <ele>1247.5</ele>
        <time>2024-02-18T14:47:33Z</time>
      </trkpt>
      <trkpt lat="45.628945156931877" lon="7.972821705043316">
        <ele>1235.79</ele>
        <time>2024-02-18T14:48:53Z</time>
      </trkpt>
      <trkpt lat="45.629023779183626" lon="7.973417239263654">
        <ele>1229.5699999999999</ele>
        <time>2024-02-18T14:50:58Z</time>
      </trkpt>
    </trkseg>
  </trk>

</gpx>